Time;durP1;ratioP1;P1;durP2;ratioP2;P2;SDS_P1;SDS_P2;PMS_P1;PMS_P2;Temp;Humidity;BMP_temperature;BMP_pressure;BME280_temperature;BME280_humidity;BME280_pressure;Samples;Min_cycle;Max_cycle;Signal;HPM_P1;HPM_P2
2021/06/07 00:00:53;;;;;;;36.85;28.80;;;16.90;95.50;;;;;;4998907;28;20022;-78
2021/06/07 00:03:18;;;;;;;33.50;27.33;;;16.90;95.60;;;;;;4998394;28;20030;-78
2021/06/07 00:05:44;;;;;;;36.38;28.98;;;16.80;95.60;;;;;;4999049;28;20023;-78
2021/06/07 00:08:09;;;;;;;36.10;26.83;;;16.80;95.60;;;;;;5000428;28;20356;-78
2021/06/07 00:10:36;;;;;;;29.92;26.63;;;16.80;95.60;;;;;;5002873;28;20132;-79
2021/06/07 00:13:04;;;;;;;30.95;24.83;;;16.80;95.60;;;;;;5001239;28;20041;-79
2021/06/07 00:15:30;;;;;;;40.65;27.35;;;16.70;95.60;;;;;;5002289;28;20478;-79
2021/06/07 00:17:56;;;;;;;32.33;25.25;;;16.60;95.60;;;;;;5001879;28;20034;-79
2021/06/07 00:20:33;;;;;;;32.60;26.83;;;16.60;95.70;;;;;;5002194;28;20034;-78
2021/06/07 00:22:59;;;;;;;35.38;25.92;;;16.60;95.70;;;;;;5002356;28;20120;-78
2021/06/07 00:25:25;;;;;;;31.02;25.85;;;16.60;95.70;;;;;;5002342;28;20106;-78
2021/06/07 00:27:50;;;;;;;28.67;24.65;;;16.60;95.70;;;;;;5000967;28;20061;-78
2021/06/07 00:30:16;;;;;;;37.28;26.23;;;16.60;95.70;;;;;;4999201;28;20029;-78
2021/06/07 00:32:41;;;;;;;31.17;26.33;;;16.60;95.70;;;;;;5002144;28;20549;-79
2021/06/07 00:35:07;;;;;;;36.80;26.63;;;16.60;95.70;;;;;;5002812;28;20033;-69
2021/06/07 00:37:33;;;;;;;38.65;26.75;;;16.60;95.70;;;;;;5001963;28;20390;-69
2021/06/07 00:39:58;;;;;;;33.85;27.75;;;16.50;95.70;;;;;;5000786;28;20033;-69
2021/06/07 00:42:24;;;;;;;36.00;27.08;;;16.50;95.80;;;;;;5001726;28;20062;-69
2021/06/07 00:44:50;;;;;;;37.33;24.92;;;16.50;95.80;;;;;;5001877;28;20029;-69
2021/06/07 00:47:17;;;;;;;35.50;25.65;;;16.50;95.80;;;;;;4982062;28;20041;-69
2021/06/07 00:49:43;;;;;;;33.80;26.17;;;16.50;95.80;;;;;;5001117;28;20034;-69
2021/06/07 00:52:08;;;;;;;34.50;27.23;;;16.50;95.90;;;;;;5000719;28;20238;-69
2021/06/07 00:54:34;;;;;;;32.58;25.00;;;16.50;95.90;;;;;;5001130;28;20062;-69
2021/06/07 00:57:00;;;;;;;39.15;26.58;;;16.50;95.90;;;;;;5000436;28;20033;-69
2021/06/07 00:59:25;;;;;;;33.28;25.15;;;16.50;95.90;;;;;;4999418;28;20034;-69
2021/06/07 01:01:51;;;;;;;34.75;26.45;;;16.50;95.90;;;;;;5001484;28;20033;-69
2021/06/07 01:04:16;;;;;;;33.33;27.50;;;16.40;95.90;;;;;;4999993;28;20033;-69
2021/06/07 01:06:42;;;;;;;32.20;24.85;;;16.40;95.80;;;;;;5001356;28;20018;-69
2021/06/07 01:09:08;;;;;;;32.75;25.67;;;16.40;95.90;;;;;;5000116;28;20026;-69
2021/06/07 01:11:35;;;;;;;31.52;24.63;;;16.40;95.90;;;;;;5001239;28;20152;-68
2021/06/07 01:14:01;;;;;;;33.95;24.02;;;16.40;95.90;;;;;;4999137;28;20026;-68
2021/06/07 01:16:26;;;;;;;29.05;23.25;;;16.40;95.90;;;;;;4999597;28;20089;-68
2021/06/07 01:18:52;;;;;;;32.53;25.00;;;16.40;95.80;;;;;;5000838;28;20034;-68
2021/06/07 01:21:22;;;;;;;27.60;23.00;;;16.40;95.80;;;;;;5000829;28;20463;-69
2021/06/07 01:23:48;;;;;;;36.72;25.92;;;16.40;95.80;;;;;;5001379;28;20030;-69
2021/06/07 01:26:17;;;;;;;28.95;23.10;;;16.40;95.80;;;;;;5000258;28;20034;-69
2021/06/07 01:28:43;;;;;;;30.05;22.23;;;16.40;95.80;;;;;;5000051;28;20026;-69
2021/06/07 01:31:11;;;;;;;31.08;24.52;;;16.40;95.90;;;;;;4998427;28;20089;-69
2021/06/07 01:33:40;;;;;;;26.88;21.73;;;16.40;95.80;;;;;;5000820;28;20026;-69
2021/06/07 01:36:06;;;;;;;27.50;22.15;;;16.40;96.00;;;;;;5001022;28;20036;-69
2021/06/07 01:38:32;;;;;;;28.80;24.27;;;16.40;95.80;;;;;;4999858;28;20109;-69
2021/06/07 01:41:00;;;;;;;37.28;24.10;;;16.30;95.80;;;;;;5001022;28;20436;-69
2021/06/07 01:43:27;;;;;;;30.92;21.83;;;16.30;95.80;;;;;;5000216;28;20022;-69
2021/06/07 01:45:53;;;;;;;24.30;21.55;;;16.30;95.80;;;;;;4982258;28;20025;-70
2021/06/07 01:48:20;;;;;;;30.27;21.38;;;16.30;95.70;;;;;;4982575;28;20089;-69
2021/06/07 01:50:47;;;;;;;27.25;22.85;;;16.30;95.60;;;;;;5000703;28;20362;-69
2021/06/07 01:53:14;;;;;;;31.83;22.52;;;16.20;95.60;;;;;;5000247;28;20073;-68
2021/06/07 01:55:42;;;;;;;25.67;20.67;;;16.20;95.50;;;;;;5000673;28;20092;-68
2021/06/07 01:58:09;;;;;;;26.00;21.40;;;16.20;95.50;;;;;;4999366;28;20088;-68
2021/06/07 02:00:42;;;;;;;28.52;21.60;;;16.10;95.50;;;;;;4999504;28;20509;-68
2021/06/07 02:03:08;;;;;;;26.05;22.55;;;16.10;95.60;;;;;;4999996;28;20034;-68
2021/06/07 02:05:38;;;;;;;23.85;19.85;;;16.10;95.50;;;;;;5000406;28;20028;-68
2021/06/07 02:08:06;;;;;;;23.00;18.30;;;16.10;95.50;;;;;;4998967;28;20029;-69
2021/06/07 02:10:36;;;;;;;26.23;18.10;;;16.10;95.30;;;;;;4983002;28;20030;-69
2021/06/07 02:13:02;;;;;;;23.45;19.67;;;16.10;94.90;;;;;;4999884;28;20378;-69
2021/06/07 02:15:27;;;;;;;22.15;18.55;;;16.00;94.90;;;;;;4982305;28;20088;-69
2021/06/07 02:17:53;;;;;;;21.50;18.13;;;16.00;94.60;;;;;;4998705;28;20493;-68
2021/06/07 02:20:22;;;;;;;20.63;16.88;;;15.90;94.70;;;;;;4998931;28;20037;-69
2021/06/07 02:22:48;;;;;;;26.13;19.58;;;15.90;94.60;;;;;;4982588;28;20027;-69
2021/06/07 02:25:17;;;;;;;20.45;18.40;;;16.00;94.70;;;;;;4999698;28;20027;-69
2021/06/07 02:27:43;;;;;;;24.17;20.73;;;15.90;94.80;;;;;;4999996;28;20034;-69
2021/06/07 02:30:12;;;;;;;23.58;19.23;;;15.90;94.90;;;;;;4998825;28;20121;-69
2021/06/07 02:32:38;;;;;;;22.02;17.58;;;15.90;95.00;;;;;;4999693;28;20059;-69
2021/06/07 02:35:05;;;;;;;20.33;18.27;;;16.00;95.10;;;;;;4998583;28;20025;-69
2021/06/07 02:37:31;;;;;;;25.90;18.75;;;16.00;95.00;;;;;;4999961;28;20030;-69
2021/06/07 02:39:56;;;;;;;22.73;18.50;;;16.00;94.90;;;;;;4998421;28;20213;-69
2021/06/07 02:42:22;;;;;;;20.98;18.45;;;16.00;94.90;;;;;;4999539;28;20093;-69
2021/06/07 02:44:49;;;;;;;19.23;16.85;;;16.00;94.90;;;;;;4999432;28;20037;-69
2021/06/07 02:47:15;;;;;;;20.10;18.10;;;15.90;94.90;;;;;;4999589;28;20466;-69
2021/06/07 02:49:41;;;;;;;20.67;17.50;;;15.90;95.00;;;;;;4999241;28;20030;-69
2021/06/07 02:52:06;;;;;;;21.48;17.52;;;15.90;95.00;;;;;;4996579;28;20516;-69
2021/06/07 02:54:32;;;;;;;21.50;16.27;;;15.90;95.10;;;;;;4998179;28;20026;-69
2021/06/07 02:56:58;;;;;;;19.38;16.95;;;15.90;95.00;;;;;;4998255;28;20021;-69
2021/06/07 02:59:23;;;;;;;18.90;16.70;;;15.90;95.00;;;;;;4998733;28;20452;-68
2021/06/07 03:01:49;;;;;;;18.75;15.43;;;16.00;94.90;;;;;;4999630;28;20040;-68
2021/06/07 03:04:14;;;;;;;20.63;15.82;;;15.90;94.80;;;;;;4981189;28;20026;-69
2021/06/07 03:06:40;;;;;;;20.08;15.65;;;15.90;94.40;;;;;;4999666;28;20024;-70
2021/06/07 03:09:05;;;;;;;17.30;14.50;;;15.80;94.30;;;;;;4995686;28;20022;-70
2021/06/07 03:11:31;;;;;;;18.60;14.20;;;15.80;94.10;;;;;;4999851;28;20033;-70
2021/06/07 03:13:57;;;;;;;16.92;13.95;;;15.70;93.50;;;;;;4999020;28;20141;-70
2021/06/07 03:16:22;;;;;;;18.85;13.32;;;15.70;93.60;;;;;;4996818;28;20049;-70
2021/06/07 03:18:48;;;;;;;15.35;13.48;;;15.70;93.40;;;;;;4999024;28;20040;-70
2021/06/07 03:21:14;;;;;;;17.40;12.73;;;15.60;93.30;;;;;;4997850;28;20125;-70
2021/06/07 03:23:41;;;;;;;19.80;14.38;;;15.60;93.40;;;;;;4981850;28;20026;-70
2021/06/07 03:26:08;;;;;;;17.65;14.45;;;15.50;93.30;;;;;;4995056;28;20030;-69
2021/06/07 03:28:34;;;;;;;19.83;14.65;;;15.50;93.40;;;;;;4981366;28;20023;-69
2021/06/07 03:31:00;;;;;;;18.77;13.85;;;15.40;93.50;;;;;;4998043;28;20121;-69
2021/06/07 03:33:26;;;;;;;18.27;15.38;;;15.40;93.50;;;;;;4996315;28;20408;-69
2021/06/07 03:35:53;;;;;;;21.70;15.30;;;15.40;93.60;;;;;;4997924;28;20475;-69
2021/06/07 03:38:19;;;;;;;19.50;15.90;;;15.30;93.50;;;;;;4995882;28;20038;-69
2021/06/07 03:40:48;;;;;;;19.55;15.68;;;15.40;93.60;;;;;;4997224;28;20599;-69
2021/06/07 03:43:15;;;;;;;17.75;15.27;;;15.40;93.60;;;;;;4999948;28;20030;-69
2021/06/07 03:45:41;;;;;;;19.35;16.13;;;15.40;93.60;;;;;;4997869;28;20027;-69
2021/06/07 03:48:07;;;;;;;21.27;16.73;;;15.40;93.60;;;;;;4998947;28;20026;-69
2021/06/07 03:50:35;;;;;;;19.45;15.88;;;15.30;93.60;;;;;;4997008;28;20453;-69
2021/06/07 03:53:01;;;;;;;20.98;15.73;;;15.30;93.70;;;;;;5001570;28;20025;-69
2021/06/07 03:55:27;;;;;;;23.58;16.80;;;15.40;93.70;;;;;;4999007;28;20034;-70
2021/06/07 03:57:54;;;;;;;24.80;17.88;;;15.30;93.60;;;;;;5001669;28;20018;-68
2021/06/07 04:00:22;;;;;;;26.80;18.42;;;15.30;93.60;;;;;;4998850;28;20512;-68
2021/06/07 04:02:48;;;;;;;20.33;17.88;;;15.30;93.60;;;;;;5016873;28;20034;-68
2021/06/07 04:05:14;;;;;;;22.73;18.67;;;15.30;93.80;;;;;;5000536;28;20026;-68
2021/06/07 04:07:41;;;;;;;23.95;19.50;;;15.20;93.80;;;;;;4997371;28;20034;-70
2021/06/07 04:10:16;;;;;;;23.58;17.92;;;15.20;93.90;;;;;;4993528;28;20045;-70
2021/06/07 04:12:42;;;;;;;23.77;18.67;;;15.30;94.00;;;;;;4999736;28;20026;-69
2021/06/07 04:15:09;;;;;;;23.25;19.02;;;15.30;93.90;;;;;;4999656;28;20072;-68
2021/06/07 04:17:35;;;;;;;23.55;19.05;;;15.30;93.80;;;;;;4998372;28;20496;-70
2021/06/07 04:20:02;;;;;;;33.15;19.95;;;15.30;93.80;;;;;;4999362;28;20030;-70
2021/06/07 04:22:27;;;;;;;27.63;20.75;;;15.30;93.90;;;;;;5002032;28;20022;-69
2021/06/07 04:24:53;;;;;;;23.92;18.80;;;15.30;93.90;;;;;;4998818;28;20042;-70
2021/06/07 04:27:18;;;;;;;24.05;19.73;;;15.20;93.90;;;;;;4982221;28;20120;-70
2021/06/07 04:29:44;;;;;;;27.83;20.27;;;15.30;94.00;;;;;;5001188;28;20465;-70
2021/06/07 04:32:11;;;;;;;23.67;20.42;;;15.30;94.00;;;;;;4996766;28;20037;-69
2021/06/07 04:34:37;;;;;;;24.58;19.00;;;15.30;94.00;;;;;;5000735;28;20393;-69
2021/06/07 04:37:04;;;;;;;28.55;20.13;;;15.30;94.00;;;;;;4984731;28;20114;-69
2021/06/07 04:39:29;;;;;;;23.08;19.92;;;15.30;94.00;;;;;;5001483;28;20126;-68
2021/06/07 04:41:55;;;;;;;27.38;20.88;;;15.30;94.00;;;;;;5000403;28;20549;-68
2021/06/07 04:44:20;;;;;;;25.05;20.83;;;15.30;94.00;;;;;;5000795;28;20126;-69
2021/06/07 04:46:46;;;;;;;23.65;18.55;;;15.30;94.00;;;;;;5001302;28;20049;-70
2021/06/07 04:49:11;;;;;;;21.25;17.17;;;15.40;94.40;;;;;;5000608;28;20026;-71
2021/06/07 04:51:37;;;;;;;23.90;19.95;;;15.60;94.20;;;;;;5001217;28;20038;-71
2021/06/07 04:54:03;;;;;;;26.48;18.65;;;15.80;93.90;;;;;;5000513;28;20034;-70
2021/06/07 04:56:29;;;;;;;19.77;16.02;;;15.80;93.40;;;;;;4999912;28;20029;-70
2021/06/07 04:58:54;;;;;;;26.58;18.23;;;15.90;93.60;;;;;;4999240;28;20125;-70
2021/06/07 05:01:20;;;;;;;23.48;19.90;;;16.10;93.50;;;;;;4995967;28;20034;-71
2021/06/07 05:03:45;;;;;;;25.38;18.80;;;16.30;93.10;;;;;;4993964;28;20129;-70
2021/06/07 05:06:11;;;;;;;18.63;16.52;;;16.40;93.00;;;;;;4997564;28;20038;-70
2021/06/07 05:08:36;;;;;;;20.63;16.40;;;16.40;92.90;;;;;;5000790;28;20484;-71
2021/06/07 05:11:02;;;;;;;24.48;16.02;;;16.40;92.70;;;;;;4999562;28;20034;-70
2021/06/07 05:13:29;;;;;;;21.65;15.85;;;16.40;92.90;;;;;;5001433;28;20486;-70
2021/06/07 05:15:56;;;;;;;22.40;18.65;;;16.50;93.00;;;;;;4999297;28;20576;-70
2021/06/07 05:18:22;;;;;;;34.78;17.17;;;16.70;92.90;;;;;;4998773;28;20355;-70
2021/06/07 05:20:47;;;;;;;19.80;17.17;;;16.90;92.80;;;;;;5000014;28;20068;-70
2021/06/07 05:23:14;;;;;;;19.85;17.60;;;17.00;92.20;;;;;;5000127;28;20536;-70
2021/06/07 05:25:41;;;;;;;18.15;15.80;;;17.00;91.90;;;;;;5000646;28;20021;-70
2021/06/07 05:28:09;;;;;;;18.17;15.88;;;16.90;91.80;;;;;;4999214;28;20042;-70
2021/06/07 05:30:36;;;;;;;29.38;16.77;;;16.90;92.00;;;;;;5000333;28;20485;-70
2021/06/07 05:33:03;;;;;;;35.60;19.20;;;16.90;92.00;;;;;;4998205;28;20030;-70
2021/06/07 05:35:37;;;;;;;25.95;17.75;;;17.00;91.90;;;;;;5000250;28;20026;-69
2021/06/07 05:38:03;;;;;;;26.80;17.35;;;17.10;91.40;;;;;;4996615;28;20512;-70
2021/06/07 05:40:29;;;;;;;26.13;18.80;;;17.00;91.40;;;;;;4998493;28;20070;-71
2021/06/07 05:42:55;;;;;;;26.40;19.40;;;16.90;91.50;;;;;;4999617;28;20057;-70
2021/06/07 05:45:21;;;;;;;21.40;17.50;;;16.90;91.70;;;;;;4999443;28;20053;-70
2021/06/07 05:47:48;;;;;;;26.88;17.23;;;16.90;91.60;;;;;;4983861;28;20046;-70
2021/06/07 05:50:17;;;;;;;25.23;19.23;;;16.80;91.80;;;;;;4996809;28;20022;-70
2021/06/07 05:52:46;;;;;;;30.77;19.58;;;16.90;91.70;;;;;;4982993;28;20441;-70
2021/06/07 05:55:24;;;;;;;22.65;17.88;;;16.90;91.80;;;;;;5000024;28;20076;-70
2021/06/07 05:57:54;;;;;;;26.40;16.70;;;16.90;91.70;;;;;;5000531;28;20037;-71
2021/06/07 06:00:22;;;;;;;37.65;19.77;;;16.90;91.70;;;;;;4999741;28;20033;-70
2021/06/07 06:02:48;;;;;;;20.58;18.27;;;16.90;91.60;;;;;;4998844;28;20084;-70
2021/06/07 06:05:15;;;;;;;22.88;19.75;;;17.00;91.60;;;;;;4997033;28;20446;-69
2021/06/07 06:07:41;;;;;;;26.88;20.92;;;17.00;91.30;;;;;;4999794;28;20497;-70
2021/06/07 06:10:07;;;;;;;23.48;20.38;;;16.90;90.90;;;;;;4998095;28;20068;-70
2021/06/07 06:12:33;;;;;;;28.42;19.80;;;16.60;91.00;;;;;;4999532;28;20037;-71
2021/06/07 06:14:58;;;;;;;28.52;21.08;;;16.40;91.40;;;;;;4998631;28;20038;-68
2021/06/07 06:17:24;;;;;;;24.80;19.80;;;16.20;91.50;;;;;;4998788;28;20025;-69
2021/06/07 06:19:49;;;;;;;22.33;19.80;;;16.10;91.80;;;;;;4999170;28;20048;-69
2021/06/07 06:22:15;;;;;;;24.70;19.60;;;16.00;92.00;;;;;;4999688;28;20647;-68
2021/06/07 06:24:41;;;;;;;23.38;20.17;;;16.00;92.10;;;;;;4996629;28;20038;-68
2021/06/07 06:27:09;;;;;;;25.52;20.25;;;16.00;92.30;;;;;;4996954;28;20390;-68
2021/06/07 06:29:35;;;;;;;27.45;20.13;;;16.00;92.40;;;;;;4997920;28;20164;-68
2021/06/07 06:32:01;;;;;;;24.25;20.20;;;16.00;92.40;;;;;;4999009;28;20105;-68
2021/06/07 06:34:27;;;;;;;23.92;19.45;;;16.10;92.30;;;;;;4999338;28;20022;-76
2021/06/07 06:36:52;;;;;;;23.58;19.83;;;16.10;92.20;;;;;;4998788;28;20029;-77
2021/06/07 06:39:18;;;;;;;24.23;20.63;;;16.10;92.30;;;;;;4998287;28;20057;-77
2021/06/07 06:41:43;;;;;;;28.05;19.70;;;16.20;92.30;;;;;;4998176;28;20537;-77
2021/06/07 06:44:09;;;;;;;24.27;19.58;;;16.30;92.30;;;;;;4999507;28;20030;-76
2021/06/07 06:46:35;;;;;;;27.50;20.10;;;16.30;92.00;;;;;;4999888;28;20034;-76
2021/06/07 06:49:02;;;;;;;25.65;19.67;;;16.40;92.00;;;;;;4999161;28;20022;-76
2021/06/07 06:51:28;;;;;;;25.00;18.00;;;16.50;91.90;;;;;;4999161;28;20112;-78
2021/06/07 06:53:53;;;;;;;23.08;17.73;;;16.60;91.50;;;;;;4999742;28;20715;-78
2021/06/07 06:56:19;;;;;;;22.50;20.10;;;16.80;91.50;;;;;;4999083;28;20138;-78
2021/06/07 06:58:44;;;;;;;27.30;19.35;;;16.90;90.70;;;;;;4997820;28;20034;-78
2021/06/07 07:01:10;;;;;;;23.30;19.92;;;17.00;90.60;;;;;;4997694;28;20029;-78
2021/06/07 07:03:37;;;;;;;27.92;20.48;;;17.00;90.30;;;;;;4999758;28;20018;-78
2021/06/07 07:06:03;;;;;;;28.83;20.00;;;17.00;90.00;;;;;;4999139;28;20018;-78
2021/06/07 07:08:30;;;;;;;26.38;21.20;;;16.90;90.30;;;;;;4999019;28;20044;-79
2021/06/07 07:10:56;;;;;;;28.42;21.25;;;16.90;90.40;;;;;;4998541;28;20366;-79
2021/06/07 07:13:22;;;;;;;27.52;21.17;;;17.00;90.30;;;;;;4997989;28;20125;-79
2021/06/07 07:15:47;;;;;;;28.40;22.27;;;17.00;90.20;;;;;;4997867;28;20030;-77
2021/06/07 07:18:13;;;;;;;28.67;21.20;;;17.00;90.50;;;;;;5003169;28;20037;-79
2021/06/07 07:20:39;;;;;;;32.47;21.95;;;17.30;90.50;;;;;;5003200;28;20026;-78
2021/06/07 07:23:06;;;;;;;31.58;22.55;;;17.40;90.30;;;;;;5003319;28;20057;-78
2021/06/07 07:25:32;;;;;;;24.70;22.08;;;17.40;89.70;;;;;;5003929;28;20105;-79
2021/06/07 07:27:57;;;;;;;27.75;22.95;;;17.40;89.50;;;;;;5002414;28;20034;-79
2021/06/07 07:30:27;;;;;;;29.52;21.88;;;17.40;89.80;;;;;;5000628;28;20035;-79
2021/06/07 07:32:54;;;;;;;27.77;22.48;;;17.40;90.00;;;;;;5002100;28;20021;-78
2021/06/07 07:35:20;;;;;;;26.15;21.92;;;17.50;90.00;;;;;;5002940;28;20035;-78
2021/06/07 07:37:46;;;;;;;29.38;21.80;;;17.60;88.90;;;;;;5002968;28;20110;-79
2021/06/07 07:40:15;;;;;;;28.63;22.00;;;17.60;88.90;;;;;;5001232;28;20031;-78
2021/06/07 07:42:41;;;;;;;30.90;23.35;;;17.50;89.30;;;;;;5003143;28;20030;-78
2021/06/07 07:45:09;;;;;;;28.45;21.55;;;17.40;89.00;;;;;;5002756;28;20026;-78
2021/06/07 07:47:35;;;;;;;31.73;22.60;;;17.40;89.30;;;;;;5001429;28;20140;-78
2021/06/07 07:50:04;;;;;;;32.78;22.95;;;17.40;89.30;;;;;;5001559;28;20502;-78
2021/06/07 07:52:29;;;;;;;35.88;23.60;;;17.40;89.50;;;;;;5002395;28;20038;-78
2021/06/07 07:54:55;;;;;;;34.10;23.15;;;17.50;88.80;;;;;;5003213;28;20040;-78
2021/06/07 07:57:22;;;;;;;37.00;23.45;;;17.60;89.30;;;;;;5002447;28;20339;-78
2021/06/07 07:59:48;;;;;;;28.75;21.75;;;17.90;88.70;;;;;;5002361;28;20493;-77
2021/06/07 08:02:13;;;;;;;29.55;22.38;;;18.20;87.80;;;;;;5000969;28;20037;-78
2021/06/07 08:04:41;;;;;;;28.33;20.73;;;18.60;87.20;;;;;;5001008;28;20025;-78
2021/06/07 08:07:06;;;;;;;32.75;23.30;;;18.80;86.10;;;;;;4984845;28;20041;-78
2021/06/07 08:09:32;;;;;;;30.15;23.45;;;19.00;84.80;;;;;;4984576;28;20126;-78
2021/06/07 08:11:59;;;;;;;27.20;21.08;;;19.20;84.80;;;;;;5002690;28;20519;-78
2021/06/07 08:14:25;;;;;;;30.67;22.52;;;19.50;84.70;;;;;;5002295;28;20105;-78
2021/06/07 08:16:50;;;;;;;26.30;21.23;;;19.60;83.90;;;;;;5002433;28;20557;-77
2021/06/07 08:19:16;;;;;;;30.38;22.23;;;19.80;83.50;;;;;;4999714;28;20061;-77
2021/06/07 08:21:41;;;;;;;27.58;22.38;;;20.00;83.40;;;;;;5000382;28;20077;-77
2021/06/07 08:24:07;;;;;;;28.67;20.42;;;20.00;80.80;;;;;;4984527;28;20389;-77
2021/06/07 08:26:33;;;;;;;22.13;18.15;;;19.90;80.90;;;;;;5002280;28;20120;-77
2021/06/07 08:28:58;;;;;;;32.10;21.13;;;19.80;82.00;;;;;;5000630;28;20113;-77
2021/06/07 08:31:24;;;;;;;24.23;17.35;;;19.80;80.30;;;;;;5002030;28;20026;-77
2021/06/07 08:33:49;;;;;;;28.30;20.35;;;19.60;80.70;;;;;;5000354;28;20291;-78
2021/06/07 08:36:15;;;;;;;21.45;17.88;;;19.60;81.10;;;;;;5001725;28;20540;-77
2021/06/07 08:38:41;;;;;;;24.40;18.30;;;19.60;80.50;;;;;;4999905;28;20034;-78
2021/06/07 08:41:10;;;;;;;23.27;18.55;;;19.70;80.10;;;;;;5001640;28;20037;-77
2021/06/07 08:43:35;;;;;;;24.77;19.33;;;19.90;80.00;;;;;;5002274;28;20022;-78
2021/06/07 08:46:01;;;;;;;25.20;17.98;;;19.90;79.00;;;;;;5001648;28;20081;-78
2021/06/07 08:48:27;;;;;;;22.15;18.00;;;19.90;77.50;;;;;;5001618;28;20049;-78
2021/06/07 08:50:53;;;;;;;24.08;17.50;;;19.60;78.30;;;;;;4983397;28;20493;-78
2021/06/07 08:53:18;;;;;;;22.20;17.73;;;19.60;78.80;;;;;;5001654;28;20030;-78
2021/06/07 08:55:44;;;;;;;18.35;15.18;;;19.60;78.50;;;;;;5000952;28;20401;-77
2021/06/07 08:58:10;;;;;;;23.83;17.42;;;19.60;77.60;;;;;;5000103;28;20030;-77
2021/06/07 09:00:40;;;;;;;26.45;13.70;;;19.70;77.50;;;;;;5001351;28;20033;-77
2021/06/07 09:03:09;;;;;;;18.75;14.77;;;19.90;78.00;;;;;;4984138;28;20389;-77
2021/06/07 09:05:35;;;;;;;20.67;16.02;;;20.30;78.40;;;;;;4999612;28;20084;-77
2021/06/07 09:08:04;;;;;;;24.67;18.90;;;20.70;76.80;;;;;;4999367;28;20018;-78
2021/06/07 09:10:34;;;;;;;25.00;17.50;;;20.80;75.60;;;;;;5001480;28;20038;-78
2021/06/07 09:13:04;;;;;;;25.15;16.98;;;20.90;76.50;;;;;;5000415;28;20045;-78
2021/06/07 09:15:42;;;;;;;22.00;16.42;;;20.90;76.40;;;;;;5001368;28;20564;-78
2021/06/07 09:18:13;;;;;;;23.02;15.93;;;20.90;75.70;;;;;;4999951;28;20042;-78
2021/06/07 09:20:40;;;;;;;27.23;16.90;;;21.00;76.10;;;;;;4998557;28;20375;-78
2021/06/07 09:23:09;;;;;;;33.00;18.80;;;21.00;76.00;;;;;;4997123;28;20026;-78
2021/06/07 09:25:40;;;;;;;23.45;17.15;;;20.90;76.60;;;;;;5000463;28;20033;-78
2021/06/07 09:28:20;;;;;;;26.80;17.42;;;21.00;77.00;;;;;;4999934;28;20712;-78
2021/06/07 09:31:00;;;;;;;20.67;17.23;;;21.00;76.00;;;;;;5000995;28;20034;-78
2021/06/07 09:33:35;;;;;;;21.63;16.27;;;20.90;75.90;;;;;;5000897;28;20061;-78
2021/06/07 09:36:06;;;;;;;19.10;17.02;;;20.90;76.30;;;;;;5000443;28;20036;-78
2021/06/07 09:38:33;;;;;;;21.65;16.77;;;20.80;75.60;;;;;;4997946;28;20022;-78
2021/06/07 09:41:03;;;;;;;23.45;17.83;;;20.70;75.80;;;;;;4999970;28;20033;-77
2021/06/07 09:43:54;;;;;;;26.38;19.25;;;20.60;76.20;;;;;;5000626;28;20053;-77
2021/06/07 09:46:26;;;;;;;24.00;17.40;;;20.50;76.10;;;;;;5000620;28;20026;-77
2021/06/07 09:49:06;;;;;;;22.65;16.48;;;20.40;76.70;;;;;;4999564;28;20022;-78
2021/06/07 09:51:32;;;;;;;21.85;15.02;;;20.20;76.70;;;;;;4999613;28;20034;-77
2021/06/07 09:53:57;;;;;;;20.00;14.98;;;20.00;78.10;;;;;;4998693;28;20026;-77
2021/06/07 09:56:24;;;;;;;17.27;14.35;;;20.00;77.70;;;;;;5000615;28;20029;-78
2021/06/07 09:58:51;;;;;;;19.80;15.32;;;20.00;77.30;;;;;;4999592;28;20030;-77
2021/06/07 10:01:19;;;;;;;18.65;15.35;;;20.10;77.80;;;;;;4999991;28;20036;-77
2021/06/07 10:03:59;;;;;;;21.70;16.90;;;20.20;77.60;;;;;;5000376;28;20129;-77
2021/06/07 10:06:34;;;;;;;20.10;14.27;;;20.20;77.30;;;;;;5000146;28;20454;-78
2021/06/07 10:09:07;;;;;;;23.80;16.08;;;20.10;78.10;;;;;;4999329;28;20026;-78
2021/06/07 10:11:42;;;;;;;22.38;18.13;;;20.30;78.50;;;;;;4998424;28;20414;-78
2021/06/07 10:14:20;;;;;;;22.83;17.70;;;20.50;78.70;;;;;;5000155;28;20462;-78
2021/06/07 10:16:54;;;;;;;21.55;16.83;;;20.60;77.20;;;;;;5000487;28;20057;-78
2021/06/07 10:19:30;;;;;;;19.73;15.27;;;20.60;77.40;;;;;;4999948;28;20026;-78
2021/06/07 10:21:56;;;;;;;22.40;16.75;;;20.70;76.60;;;;;;5001777;28;20544;-78
2021/06/07 10:24:22;;;;;;;23.52;14.55;;;20.70;76.70;;;;;;4999873;28;20124;-78
2021/06/07 10:26:47;;;;;;;19.98;14.77;;;20.70;77.10;;;;;;4999411;28;20505;-78
2021/06/07 10:29:13;;;;;;;20.15;15.20;;;20.90;77.00;;;;;;4982558;28;20038;-78
2021/06/07 10:31:39;;;;;;;19.35;15.70;;;21.00;75.70;;;;;;4996759;28;20120;-78
2021/06/07 10:34:08;;;;;;;17.77;14.45;;;20.80;75.60;;;;;;4999749;28;20056;-78
2021/06/07 10:36:41;;;;;;;32.40;15.45;;;20.60;76.40;;;;;;4999898;28;20299;-78
2021/06/07 10:39:17;;;;;;;15.80;14.13;;;20.60;76.40;;;;;;4997314;28;20482;-78
2021/06/07 10:41:44;;;;;;;16.67;11.65;;;20.60;76.50;;;;;;4998135;28;20041;-78
2021/06/07 10:44:10;;;;;;;15.57;13.05;;;20.60;77.50;;;;;;4999402;28;20018;-78
2021/06/07 10:46:38;;;;;;;15.15;12.38;;;20.80;76.70;;;;;;4998463;28;20451;-78
2021/06/07 10:49:25;;;;;;;16.20;13.50;;;20.80;76.70;;;;;;4998226;28;20022;-78
2021/06/07 10:52:19;;;;;;;19.23;13.52;;;20.80;75.90;;;;;;4997324;28;20448;-78
2021/06/07 10:54:56;;;;;;;17.50;14.48;;;20.70;76.40;;;;;;4999663;28;20054;-78
2021/06/07 10:57:25;;;;;;;16.73;12.02;;;20.70;76.20;;;;;;4998040;28;20030;-78
2021/06/07 11:00:12;;;;;;;21.50;13.50;;;20.60;77.60;;;;;;4998790;28;20022;-78
2021/06/07 11:02:43;;;;;;;14.95;12.68;;;20.80;77.30;;;;;;4982161;28;20129;-78
2021/06/07 11:05:21;;;;;;;14.27;10.25;;;21.00;75.30;;;;;;4999511;28;20027;-78
2021/06/07 11:08:04;;;;;;;13.00;9.32;;;20.90;76.00;;;;;;4996361;28;20026;-78
2021/06/07 11:10:32;;;;;;;15.23;10.98;;;21.10;77.20;;;;;;4999329;28;20087;-78
2021/06/07 11:13:04;;;;;;;11.80;10.60;;;21.30;76.60;;;;;;4999168;28;20026;-78
2021/06/07 11:15:33;;;;;;;11.90;10.65;;;21.40;74.00;;;;;;4999398;28;20022;-78
2021/06/07 11:18:25;;;;;;;11.15;10.05;;;21.20;74.10;;;;;;4998688;28;20033;-78
2021/06/07 11:20:54;;;;;;;11.55;10.43;;;21.00;74.60;;;;;;4998679;28;20490;-78
2021/06/07 11:23:29;;;;;;;9.98;8.98;;;21.00;75.30;;;;;;4997822;28;20034;-78
2021/06/07 11:25:56;;;;;;;11.73;10.52;;;20.80;74.60;;;;;;4998654;28;20022;-78
2021/06/07 11:28:41;;;;;;;13.82;10.55;;;20.80;75.30;;;;;;4997920;28;20029;-78
2021/06/07 11:31:29;;;;;;;11.55;10.38;;;20.90;76.00;;;;;;4998891;28;20104;-78
2021/06/07 11:34:04;;;;;;;14.25;9.80;;;21.10;75.60;;;;;;4998747;28;20029;-78
2021/06/07 11:36:48;;;;;;;13.52;9.43;;;21.40;75.70;;;;;;4999418;28;20389;-78
2021/06/07 11:39:22;;;;;;;14.82;9.30;;;21.70;74.50;;;;;;4998471;28;20030;-78
2021/06/07 11:41:55;;;;;;;13.55;10.20;;;21.90;74.20;;;;;;4999519;28;20033;-77
2021/06/07 11:44:43;;;;;;;13.05;9.60;;;22.00;73.60;;;;;;4997390;28;20038;-78
2021/06/07 11:47:10;;;;;;;14.82;9.70;;;22.20;72.90;;;;;;4998829;28;20029;-78
2021/06/07 11:49:56;;;;;;;11.32;10.13;;;22.30;72.70;;;;;;4998782;28;20026;-78
2021/06/07 11:52:47;;;;;;;11.45;10.23;;;22.10;71.60;;;;;;4998356;28;20031;-77
2021/06/07 11:55:34;;;;;;;13.85;11.20;;;21.90;72.70;;;;;;4998591;28;20053;-78
2021/06/07 11:58:07;;;;;;;;;;;21.90;73.60;;;;;;4998884;28;20056;-78
2021/06/07 12:00:35;;;;;;;13.13;9.68;;;22.00;73.50;;;;;;4997603;28;19918;-77
2021/06/07 12:03:05;;;;;;;11.02;9.60;;;22.20;73.80;;;;;;4999225;28;20528;-78
2021/06/07 12:05:31;;;;;;;11.25;9.70;;;22.30;71.40;;;;;;5002778;28;20049;-78
2021/06/07 12:08:13;;;;;;;10.68;9.55;;;22.20;72.60;;;;;;5002023;28;20068;-78
2021/06/07 12:10:40;;;;;;;14.65;9.38;;;22.20;71.70;;;;;;5002530;28;20042;-78
2021/06/07 12:13:22;;;;;;;10.30;9.15;;;22.10;72.10;;;;;;5002399;28;20436;-77
2021/06/07 12:16:05;;;;;;;11.38;10.02;;;22.30;72.20;;;;;;5001933;28;20018;-78
2021/06/07 12:18:36;;;;;;;12.95;8.63;;;22.50;71.80;;;;;;5000539;28;20140;-78
2021/06/07 12:21:19;;;;;;;10.52;9.43;;;22.60;71.70;;;;;;5002040;28;20437;-78
2021/06/07 12:24:12;;;;;;;9.68;8.77;;;22.60;70.70;;;;;;5002248;28;20021;-78
2021/06/07 12:29:28;;;;;;;10.73;8.57;;;22.10;71.80;;;;;;5001802;28;20413;-78
2021/06/07 12:32:16;;;;;;;9.63;8.60;;;22.10;71.80;;;;;;5002133;28;20160;-78
2021/06/07 12:35:06;;;;;;;8.95;8.02;;;22.00;71.60;;;;;;5001411;28;20060;-77
2021/06/07 12:37:35;;;;;;;9.23;8.32;;;21.80;72.00;;;;;;5001431;28;20381;-77